Terminal Aerodrome Forecast
Issued by NWS

Home | Current Version | Previous Version | Text Only | Print | Product List | Glossary Off
Versions: 1 2 3 4 5 6 7 8 9 10 11 12 13 14 15 16 17

058
FTUS43 KABR 071735
TAFPIR
TAF
KPIR 071735Z 0718/0818 31036G50KT P6SM VCSH OVC040
     FM072200 31034G43KT P6SM BKN040
     FM080300 32030G42KT P6SM SCT040
     FM081000 32024G34KT P6SM SCT040=

USA.gov is the U.S. government's official web portal to all federal, state and local government web resources and services.